Portada
METAR-TAF:

METAR-TAF

Aeroports :

Portage Glacier, Alaska, Estats Units d'Amèrica

latitud: 60-47N, longitud: 148-50W, altitud: 29 m

Observació

L'informe es va fer fa 28 minuts, a les 13:36 UTC
Vent 4 kt del Oest/Nord-Oest
Temperatura 0°C
Humitat 93%
Pressió 991 hPa
Visibilitat: 2.0 km
Cel ennuvolat a una alçada de 1400 ft
Cel cobert a una alçada de 1900 ft
neu, boirina

METAR: PATO 221336Z AUTO 29004KT 1 1/4SM -SN BR BKN014 OVC019 00/M01 A2927 RMK AO2 P0000 T00001011 TSNO

Hora: 06:04 (14:04 UTC)


TAF: manca

Observacions i pronòstics meteorològics de més de 4000 aeroports (METAR i TAF).

Les estacions disponibles són els punts grocs i vermells al mapa.

Posi el ratolí al punt desitjat per veure el nom de l'estació.

Feu clic per veure les observacions i els pronòstics meteorològics.

Per canviar el mapa: feu clic els botons verds amb una creu de color negre per apropar; al botó verd amb un guió per allunyar la imatge; o en les fletxes verdes per a mapes adjacents.


METAR-TAF: